createdAt,value
2018-08-07T00:00:50.306Z,27.80
2018-08-07T00:03:19.647Z,27.70
2018-08-07T00:05:49.651Z,27.60
2018-08-07T00:08:17.546Z,27.70
2018-08-07T00:13:15.652Z,27.70
2018-08-07T00:15:45.862Z,27.60
2018-08-07T00:18:15.677Z,27.60
2018-08-07T00:20:44.563Z,27.60
2018-08-07T00:23:13.618Z,27.60
2018-08-07T00:25:43.059Z,27.60
2018-08-07T00:33:08.166Z,27.50
2018-08-07T00:35:37.147Z,27.50
2018-08-07T00:38:06.604Z,27.50
2018-08-07T00:40:35.778Z,27.40
2018-08-07T00:43:05.281Z,27.40
2018-08-07T00:45:37.573Z,27.40
2018-08-07T00:48:06.009Z,27.30
2018-08-07T00:50:34.878Z,27.30
2018-08-07T00:53:04.935Z,27.30
2018-08-07T00:55:33.565Z,27.10
2018-08-07T01:00:30.678Z,27.10
2018-08-07T01:02:59.795Z,27.10
2018-08-07T01:05:28.240Z,27.10
2018-08-07T01:07:57.438Z,27.10
2018-08-07T01:10:26.093Z,27.10
2018-08-07T01:15:24.979Z,27.10
2018-08-07T01:17:53.748Z,27.00
2018-08-07T01:30:15.512Z,26.50
2018-08-07T01:32:44.209Z,26.60
2018-08-07T01:35:12.247Z,26.60
2018-08-07T01:37:40.274Z,26.70
2018-08-07T01:40:10.830Z,26.50
2018-08-07T01:45:09.534Z,26.30
2018-08-07T01:47:38.645Z,26.00
2018-08-07T01:50:09.608Z,25.90
2018-08-07T01:52:39.320Z,25.80
2018-08-07T01:55:10.384Z,26.10
2018-08-07T01:57:38.961Z,26.20
2018-08-07T02:00:09.663Z,26.30
2018-08-07T02:02:38.474Z,26.20
2018-08-07T02:05:08.379Z,26.20
2018-08-07T02:07:37.585Z,26.30
2018-08-07T02:10:07.653Z,26.40
2018-08-07T02:12:36.076Z,26.50
2018-08-07T02:15:06.760Z,26.50
2018-08-07T02:17:34.748Z,26.40
2018-08-07T02:20:03.867Z,26.50
2018-08-07T02:22:33.379Z,26.40
2018-08-07T02:25:01.881Z,26.40
2018-08-07T02:27:30.946Z,26.40
2018-08-07T02:30:01.089Z,26.40
2018-08-07T02:32:29.952Z,26.40
2018-08-07T02:34:59.085Z,26.30
2018-08-07T02:37:27.705Z,26.30
2018-08-07T02:39:56.344Z,26.10
2018-08-07T02:42:24.282Z,26.00
2018-08-07T02:47:22.361Z,25.90
2018-08-07T02:49:51.746Z,25.90
2018-08-07T02:52:20.882Z,25.80
2018-08-07T02:54:49.530Z,25.70
2018-08-07T02:57:18.185Z,25.50
2018-08-07T02:59:48.681Z,25.50
2018-08-07T03:02:16.566Z,25.50
2018-08-07T03:04:46.046Z,25.60
2018-08-07T03:07:15.199Z,25.50
2018-08-07T03:12:10.832Z,25.50
2018-08-07T03:14:39.457Z,25.50
2018-08-07T03:17:07.228Z,25.60
2018-08-07T03:19:36.343Z,25.60
2018-08-07T03:22:06.390Z,26.00
2018-08-07T03:24:34.513Z,25.80
2018-08-07T03:27:05.101Z,25.80
2018-08-07T03:29:34.500Z,25.60
2018-08-07T03:32:04.457Z,25.30
2018-08-07T03:34:32.995Z,25.10
2018-08-07T03:37:02.856Z,25.10
2018-08-07T03:39:31.292Z,25.20
2018-08-07T03:41:59.736Z,25.10
2018-08-07T03:44:28.312Z,25.10
2018-08-07T03:49:26.722Z,25.20
2018-08-07T03:51:55.245Z,25.20
2018-08-07T03:54:24.063Z,25.20
2018-08-07T03:59:21.153Z,25.30
2018-08-07T04:01:51.037Z,25.40
2018-08-07T04:06:49.168Z,25.20
2018-08-07T04:09:19.819Z,25.20
2018-08-07T04:11:49.197Z,25.20
2018-08-07T04:14:17.755Z,25.20
2018-08-07T04:16:50.658Z,25.30
2018-08-07T04:19:19.106Z,25.40
2018-08-07T04:24:14.763Z,25.50
2018-08-07T04:26:43.868Z,25.50
2018-08-07T04:29:11.761Z,25.40
2018-08-07T04:31:40.273Z,25.40
2018-08-07T04:34:09.165Z,25.50
2018-08-07T04:36:37.811Z,25.50
2018-08-07T04:41:36.374Z,25.30
2018-08-07T04:44:07.218Z,25.40
2018-08-07T04:49:03.925Z,25.60
2018-08-07T04:51:33.355Z,25.60
2018-08-07T04:54:01.419Z,25.50
2018-08-07T04:56:30.899Z,25.30
2018-08-07T04:58:58.824Z,25.50
2018-08-07T05:01:28.651Z,25.50
2018-08-07T05:03:57.114Z,25.50
2018-08-07T05:06:27.293Z,25.60
2018-08-07T05:08:55.742Z,25.50
2018-08-07T05:11:25.286Z,25.50
2018-08-07T05:13:54.304Z,25.50
2018-08-07T05:16:23.435Z,25.30
2018-08-07T05:18:52.659Z,25.20
2018-08-07T05:21:20.650Z,25.30
2018-08-07T05:23:49.102Z,25.20
2018-08-07T05:26:17.906Z,25.30
2018-08-07T05:28:48.392Z,25.50
2018-08-07T05:31:17.508Z,25.60
2018-08-07T05:36:16.968Z,25.60
2018-08-07T05:38:47.397Z,25.30
2018-08-07T05:41:18.952Z,25.30
2018-08-07T05:43:47.730Z,25.30
2018-08-07T05:46:16.955Z,25.60
2018-08-07T05:48:46.607Z,25.90
2018-08-07T05:51:16.201Z,26.00
2018-08-07T05:53:43.955Z,26.10
2018-08-07T05:56:13.532Z,26.30
2018-08-07T05:58:42.017Z,26.40
2018-08-07T06:01:11.060Z,26.40
2018-08-07T06:03:41.245Z,26.50
2018-08-07T06:06:10.506Z,26.40
2018-08-07T06:08:38.413Z,26.60
2018-08-07T06:11:07.170Z,26.60
2018-08-07T06:13:37.084Z,26.70
2018-08-07T06:16:05.936Z,27.10
2018-08-07T06:21:02.162Z,27.20
2018-08-07T06:23:31.087Z,27.20
2018-08-07T06:25:59.787Z,27.20
2018-08-07T06:28:29.625Z,27.50
2018-08-07T06:30:58.857Z,27.60
2018-08-07T06:33:28.935Z,27.60
2018-08-07T06:35:58.921Z,27.30
2018-08-07T06:40:58.019Z,27.40
2018-08-07T06:43:26.646Z,27.40
2018-08-07T06:45:57.005Z,27.60
2018-08-07T06:48:26.106Z,27.70
2018-08-07T06:50:55.385Z,28.00
2018-08-07T06:53:23.914Z,28.30
2018-08-07T06:55:53.298Z,28.60
2018-08-07T07:05:46.595Z,29.10
2018-08-07T07:08:16.137Z,29.20
2018-08-07T07:10:45.834Z,29.20
2018-08-07T07:13:14.928Z,29.40
2018-08-07T07:15:44.530Z,29.60
2018-08-07T07:18:13.011Z,29.60
2018-08-07T07:23:10.516Z,29.20
2018-08-07T07:25:39.333Z,29.10
2018-08-07T07:28:07.936Z,29.10
2018-08-07T07:33:03.955Z,29.40
2018-08-07T07:38:00.947Z,29.30
2018-08-07T07:40:30.070Z,29.30
2018-08-07T07:42:59.388Z,29.50
2018-08-07T07:45:29.455Z,29.50
2018-08-07T07:47:59.814Z,29.60
2018-08-07T07:50:29.786Z,30.10
2018-08-07T07:52:58.195Z,30.40
2018-08-07T07:55:26.149Z,30.90
2018-08-07T07:57:55.953Z,31.00
2018-08-07T08:00:26.337Z,30.50
2018-08-07T08:02:56.222Z,30.30
2018-08-07T08:05:25.304Z,30.10
2018-08-07T08:07:54.571Z,30.20
2018-08-07T08:10:23.638Z,30.40
2018-08-07T08:12:53.346Z,30.50
2018-08-07T08:17:51.803Z,30.70
2018-08-07T08:20:25.373Z,30.70
2018-08-07T08:27:53.561Z,31.60
2018-08-07T08:30:22.847Z,31.90
2018-08-07T08:32:53.114Z,32.20
2018-08-07T08:35:24.096Z,32.10
2018-08-07T08:37:52.422Z,32.00
2018-08-07T08:40:21.941Z,31.70
2018-08-07T08:42:52.161Z,31.70
2018-08-07T08:45:21.960Z,32.20
2018-08-07T08:47:51.999Z,32.40
2018-08-07T08:50:21.564Z,32.40
2018-08-07T08:52:49.728Z,32.60
2018-08-07T08:55:18.288Z,32.70
2018-08-07T08:57:47.977Z,32.90
2018-08-07T09:00:25.656Z,32.70
2018-08-07T09:02:56.446Z,33.30
2018-08-07T09:05:25.365Z,33.10
2018-08-07T09:07:53.390Z,33.30
2018-08-07T09:10:24.034Z,33.30
2018-08-07T09:12:54.298Z,33.70
2018-08-07T09:15:26.755Z,33.80
2018-08-07T09:17:55.328Z,34.00
2018-08-07T09:20:26.827Z,33.80
2018-08-07T09:22:56.590Z,34.00
2018-08-07T09:25:27.081Z,34.10
2018-08-07T09:27:58.813Z,34.20
2018-08-07T09:30:28.051Z,34.20
2018-08-07T09:32:57.441Z,34.10
2018-08-07T09:35:26.531Z,34.30
2018-08-07T09:37:55.213Z,34.30
2018-08-07T09:40:26.130Z,34.30
2018-08-07T09:42:55.529Z,34.30
2018-08-07T09:45:29.021Z,34.60
2018-08-07T09:47:58.060Z,35.00
2018-08-07T09:50:27.926Z,35.00
2018-08-07T09:52:56.509Z,35.50
2018-08-07T09:55:24.726Z,35.20
2018-08-07T09:57:53.589Z,35.20
2018-08-07T10:00:27.484Z,35.30
2018-08-07T10:02:59.153Z,35.20
2018-08-07T10:05:28.620Z,35.40
2018-08-07T10:07:58.070Z,35.60
2018-08-07T10:10:28.063Z,35.70
2018-08-07T10:12:58.207Z,35.60
2018-08-07T10:15:27.349Z,35.50
2018-08-07T10:17:57.762Z,35.60
2018-08-07T10:20:25.870Z,35.90
2018-08-07T10:22:56.463Z,35.90
2018-08-07T10:25:24.935Z,35.90
2018-08-07T10:30:23.959Z,36.10
2018-08-07T10:45:57.193Z,36.30
2018-08-07T10:48:26.354Z,36.80
2018-08-07T10:50:55.095Z,36.80
2018-08-07T10:55:55.026Z,36.10
2018-08-07T10:58:25.664Z,36.20
2018-08-07T11:00:55.188Z,36.40
2018-08-07T11:03:24.149Z,36.70
2018-08-07T11:05:53.917Z,36.80
2018-08-07T11:08:22.012Z,37.00
2018-08-07T11:10:51.841Z,37.00
2018-08-07T11:13:21.056Z,36.90
2018-08-07T11:15:50.440Z,36.80
2018-08-07T11:18:20.811Z,36.50
2018-08-07T11:20:50.992Z,36.60
2018-08-07T11:23:19.692Z,36.70
2018-08-07T11:28:16.695Z,36.70
2018-08-07T11:30:47.224Z,36.90
2018-08-07T11:33:16.437Z,37.20
2018-08-07T11:35:46.301Z,37.40
2018-08-07T11:38:16.821Z,37.20
2018-08-07T11:40:45.719Z,37.50
2018-08-07T11:43:16.304Z,37.50
2018-08-07T11:45:45.272Z,37.60
2018-08-07T11:48:15.277Z,37.70
2018-08-07T11:50:44.772Z,37.20
2018-08-07T11:53:14.004Z,36.90
2018-08-07T11:55:44.148Z,36.60
2018-08-07T11:58:12.877Z,36.90
2018-08-07T12:00:42.128Z,36.60
2018-08-07T12:03:12.508Z,36.60
2018-08-07T12:05:42.285Z,36.50
2018-08-07T12:08:10.906Z,36.50
2018-08-07T12:10:40.762Z,36.50
2018-08-07T12:13:10.116Z,36.70
2018-08-07T12:15:38.694Z,36.90
2018-08-07T12:18:08.154Z,36.80
2018-08-07T12:20:36.803Z,36.00
2018-08-07T12:25:35.253Z,35.80
2018-08-07T12:28:06.224Z,36.20
2018-08-07T12:30:34.261Z,36.20
2018-08-07T12:33:03.010Z,36.00
2018-08-07T12:35:31.664Z,35.60
2018-08-07T12:38:02.343Z,35.40
2018-08-07T12:40:31.870Z,35.30
2018-08-07T12:43:02.484Z,35.30
2018-08-07T12:45:31.764Z,35.10
2018-08-07T12:48:00.172Z,35.00
2018-08-07T12:50:28.689Z,34.90
2018-08-07T12:52:57.573Z,35.00
2018-08-07T12:55:26.440Z,34.70
2018-08-07T12:57:56.982Z,34.60
2018-08-07T13:00:32.312Z,34.50
2018-08-07T13:03:00.929Z,34.40
2018-08-07T13:05:31.377Z,34.30
2018-08-07T13:08:01.207Z,34.20
2018-08-07T13:10:31.605Z,33.90
2018-08-07T13:13:01.568Z,33.90
2018-08-07T13:15:31.311Z,33.80
2018-08-07T13:18:00.907Z,33.70
2018-08-07T13:20:30.134Z,33.70
2018-08-07T13:22:58.474Z,33.70
2018-08-07T13:25:27.921Z,33.70
2018-08-07T13:27:55.993Z,33.70
2018-08-07T13:30:27.248Z,33.60
2018-08-07T13:32:57.918Z,33.60
2018-08-07T13:35:29.243Z,33.80
2018-08-07T13:37:57.397Z,34.10
2018-08-07T13:40:25.989Z,34.10
2018-08-07T13:42:55.628Z,34.00
2018-08-07T13:45:26.394Z,33.90
2018-08-07T13:47:55.948Z,33.60
2018-08-07T13:50:26.217Z,33.40
2018-08-07T13:52:57.399Z,33.30
2018-08-07T13:55:27.795Z,33.30
2018-08-07T13:57:56.413Z,33.30
2018-08-07T14:00:28.331Z,33.30
2018-08-07T14:02:57.670Z,33.30
2018-08-07T14:05:27.916Z,33.30
2018-08-07T14:10:26.635Z,33.30
2018-08-07T14:12:54.898Z,33.30
2018-08-07T14:17:56.418Z,33.40
2018-08-07T14:20:27.821Z,33.60
2018-08-07T14:25:30.280Z,33.70
2018-08-07T14:28:05.339Z,33.70
2018-08-07T14:30:35.214Z,33.70
2018-08-07T14:33:12.422Z,33.70
2018-08-07T14:35:45.595Z,33.70
2018-08-07T14:40:45.114Z,33.80
2018-08-07T14:43:15.359Z,33.90
2018-08-07T14:48:23.291Z,33.90
2018-08-07T14:53:21.856Z,33.70
2018-08-07T14:55:53.838Z,33.60
2018-08-07T14:58:23.925Z,33.50
2018-08-07T15:00:52.570Z,33.60
2018-08-07T15:03:26.889Z,33.60
2018-08-07T15:05:56.212Z,33.60
2018-08-07T15:08:25.735Z,33.70
2018-08-07T15:10:55.579Z,33.70
2018-08-07T15:13:25.606Z,33.80
2018-08-07T15:15:55.414Z,33.70
2018-08-07T15:20:54.921Z,33.80
2018-08-07T15:23:23.334Z,33.90
2018-08-07T15:25:52.751Z,33.90
2018-08-07T15:30:51.144Z,33.90
2018-08-07T15:33:22.745Z,33.90
2018-08-07T15:38:22.024Z,33.70
2018-08-07T15:40:53.651Z,33.60
2018-08-07T15:43:26.207Z,33.50
2018-08-07T15:45:56.052Z,33.40
2018-08-07T15:48:25.591Z,33.30
2018-08-07T16:08:13.029Z,32.70
2018-08-07T16:10:43.065Z,32.70
2018-08-07T16:13:14.377Z,32.60
2018-08-07T16:25:33.338Z,32.30
2018-08-07T16:28:02.211Z,32.30
2018-08-07T16:30:32.636Z,32.40
2018-08-07T16:33:02.717Z,32.40
2018-08-07T16:35:32.417Z,32.30
2018-08-07T16:38:01.723Z,32.40
2018-08-07T16:40:32.462Z,32.40
2018-08-07T16:43:01.773Z,32.40
2018-08-07T16:45:30.645Z,32.40
2018-08-07T16:47:59.693Z,32.30
2018-08-07T16:50:29.742Z,32.30
2018-08-07T16:52:58.715Z,32.30
2018-08-07T16:55:28.092Z,32.20
2018-08-07T17:00:25.918Z,32.00
2018-08-07T17:02:56.929Z,32.00
2018-08-07T17:05:26.753Z,32.00
2018-08-07T17:07:56.644Z,32.10
2018-08-07T17:10:27.853Z,32.10
2018-08-07T17:12:58.617Z,32.10
2018-08-07T17:15:29.583Z,32.10
2018-08-07T17:17:58.719Z,32.00
2018-08-07T17:20:29.693Z,32.00
2018-08-07T17:22:59.281Z,32.00
2018-08-07T17:25:28.230Z,32.00
2018-08-07T17:27:58.118Z,32.10
2018-08-07T17:30:29.059Z,32.00
2018-08-07T17:32:59.389Z,31.90
2018-08-07T17:35:28.804Z,31.80
2018-08-07T17:37:58.859Z,31.80
2018-08-07T17:40:28.027Z,31.70
2018-08-07T17:43:01.137Z,31.70
2018-08-07T17:45:31.403Z,31.80
2018-08-07T17:48:01.068Z,31.80
2018-08-07T17:50:29.895Z,31.80
2018-08-07T17:52:59.424Z,31.90
2018-08-07T17:55:28.329Z,31.90
2018-08-07T17:57:57.593Z,31.90
2018-08-07T18:00:28.060Z,31.70
2018-08-07T18:02:57.446Z,31.80
2018-08-07T18:07:56.835Z,31.60
2018-08-07T18:10:25.349Z,31.70
2018-08-07T18:25:57.931Z,31.60
2018-08-07T18:28:26.742Z,31.40
2018-08-07T18:30:55.270Z,31.40
2018-08-07T18:33:27.242Z,31.40
2018-08-07T18:35:56.939Z,31.30
2018-08-07T18:38:26.183Z,31.30
2018-08-07T18:40:55.790Z,31.20
2018-08-07T18:45:51.970Z,31.20
2018-08-07T18:48:20.595Z,31.10
2018-08-07T18:50:50.777Z,31.10
2018-08-07T18:53:19.501Z,31.00
2018-08-07T18:55:49.274Z,31.00
2018-08-07T18:58:19.076Z,31.00
2018-08-07T19:00:47.988Z,30.90
2018-08-07T19:03:17.104Z,30.90
2018-08-07T19:05:46.342Z,30.90
2018-08-07T19:08:14.884Z,30.90
2018-08-07T19:10:44.459Z,30.80
2018-08-07T19:13:13.084Z,30.70
2018-08-07T19:15:42.041Z,30.70
2018-08-07T19:18:11.389Z,30.70
2018-08-07T19:20:40.566Z,30.70
2018-08-07T19:23:09.437Z,30.60
2018-08-07T19:25:38.061Z,30.60
2018-08-07T19:30:36.495Z,30.50
2018-08-07T19:33:05.436Z,30.40
2018-08-07T19:35:33.399Z,30.40
2018-08-07T19:38:03.447Z,30.40
2018-08-07T19:40:32.125Z,30.30
2018-08-07T19:43:00.904Z,30.30
2018-08-07T19:55:21.158Z,30.10
2018-08-07T19:57:49.394Z,30.10
2018-08-07T20:00:19.808Z,30.20
2018-08-07T20:02:50.978Z,30.20
2018-08-07T20:05:19.302Z,30.20
2018-08-07T20:07:49.995Z,30.20
2018-08-07T20:10:18.659Z,30.00
2018-08-07T20:12:46.818Z,29.90
2018-08-07T20:15:19.348Z,29.70
2018-08-07T20:17:48.096Z,29.70
2018-08-07T20:20:18.083Z,29.70
2018-08-07T20:22:47.429Z,29.80
2018-08-07T20:25:16.701Z,29.80
2018-08-07T20:27:47.206Z,29.90
2018-08-07T20:31:09.655Z,29.80
2018-08-07T20:33:37.778Z,29.80
2018-08-07T20:36:07.503Z,29.80
2018-08-07T20:38:36.892Z,29.80
2018-08-07T20:41:05.673Z,29.80
2018-08-07T20:43:34.197Z,29.80
2018-08-07T20:46:02.368Z,29.70
2018-08-07T20:48:30.340Z,29.60
2018-08-07T20:50:58.298Z,29.60
2018-08-07T20:53:26.218Z,29.50
2018-08-07T20:55:55.513Z,29.50
2018-08-07T20:58:24.588Z,29.40
2018-08-07T21:00:53.243Z,29.10
2018-08-07T21:03:22.695Z,29.10
2018-08-07T21:05:51.472Z,29.10
2018-08-07T21:08:19.961Z,29.10
2018-08-07T21:10:48.756Z,29.00
2018-08-07T21:13:17.564Z,28.90
2018-08-07T21:15:46.672Z,28.90
2018-08-07T21:18:15.254Z,28.90
2018-08-07T21:20:45.141Z,28.80
2018-08-07T21:23:13.029Z,28.90
2018-08-07T21:25:41.762Z,28.90
2018-08-07T21:28:10.536Z,28.90
2018-08-07T21:30:38.911Z,28.80
2018-08-07T21:33:07.494Z,28.80
2018-08-07T21:35:36.101Z,28.80
2018-08-07T21:38:05.465Z,28.80
2018-08-07T21:40:34.815Z,28.90
2018-08-07T21:43:06.170Z,28.90
2018-08-07T21:45:35.998Z,29.00
2018-08-07T21:48:04.706Z,29.10
2018-08-07T21:50:33.896Z,29.00
2018-08-07T21:53:02.722Z,28.90
2018-08-07T21:55:31.409Z,28.90
2018-08-07T21:58:00.625Z,28.90
2018-08-07T22:00:35.026Z,28.80
2018-08-07T22:03:05.014Z,28.70
2018-08-07T22:05:33.044Z,28.70
2018-08-07T22:08:02.889Z,28.70
2018-08-07T22:10:31.878Z,28.80
2018-08-07T22:13:03.757Z,28.80
2018-08-07T22:15:32.152Z,28.80
2018-08-07T22:18:02.882Z,28.80
2018-08-07T22:20:32.116Z,28.80
2018-08-07T22:23:00.912Z,29.00
2018-08-07T22:28:02.659Z,29.00
2018-08-07T22:30:31.861Z,28.90
2018-08-07T22:35:29.253Z,28.70
2018-08-07T22:37:59.272Z,28.60
2018-08-07T22:40:27.867Z,28.50
2018-08-07T22:42:59.026Z,28.50
2018-08-07T22:45:27.727Z,28.50
2018-08-07T22:47:56.476Z,28.50
2018-08-07T22:50:25.238Z,28.40
2018-08-07T22:52:55.937Z,28.40
2018-08-07T22:55:23.768Z,28.40
2018-08-07T22:57:52.484Z,28.30
2018-08-07T23:00:21.386Z,28.30
2018-08-07T23:02:51.003Z,28.40
2018-08-07T23:05:19.755Z,28.30
2018-08-07T23:07:47.692Z,28.30
2018-08-07T23:10:20.995Z,28.30
2018-08-07T23:12:49.004Z,28.40
2018-08-07T23:17:47.301Z,28.30
2018-08-07T23:20:16.890Z,28.40
2018-08-07T23:22:44.748Z,28.40
2018-08-07T23:25:12.855Z,28.40
2018-08-07T23:27:42.555Z,28.30
2018-08-07T23:30:14.316Z,28.30
2018-08-07T23:32:43.682Z,28.20
2018-08-07T23:35:12.007Z,28.20
2018-08-07T23:37:39.910Z,28.20
2018-08-07T23:40:09.795Z,28.10
2018-08-07T23:42:37.845Z,28.10
2018-08-07T23:45:08.839Z,28.00
2018-08-07T23:47:37.013Z,28.00
2018-08-07T23:50:05.640Z,28.00
2018-08-07T23:52:34.112Z,28.00
2018-08-07T23:55:03.818Z,28.10
2018-08-07T23:57:31.592Z,28.10
